createdAt,value
2022-10-26T00:01:36.610Z,49.57
2022-10-26T00:04:05.325Z,49.73
2022-10-26T00:06:33.674Z,49.74
2022-10-26T00:09:02.006Z,49.87
2022-10-26T00:11:30.474Z,49.96
2022-10-26T00:13:58.814Z,49.90
2022-10-26T00:16:29.437Z,49.91
2022-10-26T00:18:57.935Z,49.98
2022-10-26T00:21:26.292Z,49.94
2022-10-26T00:23:54.643Z,50.16
2022-10-26T00:26:23.071Z,50.20
2022-10-26T00:28:53.922Z,50.14
2022-10-26T00:31:22.600Z,50.08
2022-10-26T00:33:55.844Z,50.18
2022-10-26T00:36:25.593Z,50.27
2022-10-26T00:38:56.113Z,50.08
2022-10-26T00:41:27.451Z,50.19
2022-10-26T00:43:56.611Z,50.25
2022-10-26T00:46:29.054Z,50.04
2022-10-26T00:49:03.100Z,50.29
2022-10-26T00:51:36.800Z,50.16
2022-10-26T00:54:12.570Z,50.21
2022-10-26T00:56:42.346Z,50.14
2022-10-26T00:59:13.664Z,50.16
2022-10-26T01:01:45.845Z,50.24
2022-10-26T01:04:16.926Z,50.43
2022-10-26T01:06:46.374Z,50.42
2022-10-26T01:09:15.244Z,50.16
2022-10-26T01:11:43.597Z,50.39
2022-10-26T01:14:13.869Z,50.38
2022-10-26T01:16:58.483Z,50.30
2022-10-26T01:20:18.054Z,50.44
2022-10-26T01:22:58.003Z,50.31
2022-10-26T01:25:50.316Z,50.41
2022-10-26T01:28:39.501Z,50.32
2022-10-26T01:31:14.380Z,50.41
2022-10-26T01:33:47.062Z,50.34
2022-10-26T01:36:23.611Z,50.40
2022-10-26T01:39:01.651Z,50.33
2022-10-26T01:41:35.471Z,50.58
2022-10-26T01:44:07.676Z,50.37
2022-10-26T01:46:42.291Z,50.57
2022-10-26T01:49:13.649Z,50.52
2022-10-26T01:51:46.607Z,50.53
2022-10-26T01:54:14.982Z,50.55
2022-10-26T01:56:47.760Z,50.69
2022-10-26T01:59:30.254Z,50.77
2022-10-26T02:02:50.873Z,50.89
2022-10-26T02:05:49.667Z,50.55
2022-10-26T02:08:44.632Z,50.52
2022-10-26T02:11:24.989Z,50.76
2022-10-26T02:13:58.862Z,50.73
2022-10-26T02:16:34.154Z,50.63
2022-10-26T02:19:10.805Z,50.64
2022-10-26T02:21:45.445Z,50.89
2022-10-26T02:24:17.120Z,50.73
2022-10-26T02:26:49.849Z,50.91
2022-10-26T02:29:21.719Z,50.86
2022-10-26T02:31:52.641Z,50.84
2022-10-26T02:34:27.009Z,50.81
2022-10-26T02:36:59.034Z,50.83
2022-10-26T02:39:29.729Z,50.88
2022-10-26T02:41:59.385Z,50.70
2022-10-26T02:44:31.410Z,51.02
2022-10-26T02:47:00.768Z,50.86
2022-10-26T02:49:31.099Z,51.06
2022-10-26T02:52:04.914Z,51.12
2022-10-26T02:54:43.487Z,51.16
2022-10-26T02:57:17.151Z,51.11
2022-10-26T02:59:48.622Z,51.29
2022-10-26T03:02:18.750Z,51.26
2022-10-26T03:04:50.615Z,51.36
2022-10-26T03:07:23.644Z,51.34
2022-10-26T03:09:52.372Z,51.53
2022-10-26T03:12:21.121Z,51.44
2022-10-26T03:14:49.452Z,51.69
2022-10-26T03:17:17.785Z,51.58
2022-10-26T03:19:47.575Z,51.67
2022-10-26T03:22:15.942Z,51.37
2022-10-26T03:24:44.298Z,51.72
2022-10-26T03:27:12.691Z,51.84
2022-10-26T03:29:41.044Z,51.63
2022-10-26T03:32:09.506Z,51.76
2022-10-26T03:34:37.858Z,51.79
2022-10-26T03:37:07.595Z,51.80
2022-10-26T03:39:35.951Z,51.96
2022-10-26T03:42:04.437Z,51.91
2022-10-26T03:44:32.839Z,52.01
2022-10-26T03:47:01.192Z,51.96
2022-10-26T03:49:29.521Z,51.99
2022-10-26T03:51:57.878Z,52.00
2022-10-26T03:54:27.582Z,52.03
2022-10-26T03:56:55.950Z,51.93
2022-10-26T03:59:24.411Z,52.12
2022-10-26T04:01:55.508Z,51.95
2022-10-26T04:04:26.364Z,52.13
2022-10-26T04:06:54.770Z,52.13
2022-10-26T04:09:23.096Z,51.96
2022-10-26T04:11:52.847Z,52.35
2022-10-26T04:14:21.211Z,52.11
2022-10-26T04:16:49.676Z,52.17
2022-10-26T04:19:18.037Z,52.12
2022-10-26T04:21:46.392Z,52.21
2022-10-26T04:24:15.382Z,52.18
2022-10-26T04:26:45.218Z,52.14
2022-10-26T04:29:15.158Z,52.19
2022-10-26T04:34:16.890Z,52.02
2022-10-26T04:36:45.282Z,52.28
2022-10-26T04:39:13.618Z,52.03
2022-10-26T04:41:41.975Z,52.10
2022-10-26T04:44:10.339Z,52.07
2022-10-26T04:46:40.153Z,52.15
2022-10-26T04:49:08.603Z,52.32
2022-10-26T04:51:36.944Z,52.40
2022-10-26T04:54:05.813Z,52.16
2022-10-26T04:56:34.270Z,52.38
2022-10-26T04:59:02.914Z,52.31
2022-10-26T05:01:32.955Z,52.40
2022-10-26T05:04:02.831Z,52.53
2022-10-26T05:06:31.713Z,52.44
2022-10-26T05:09:00.024Z,52.38
2022-10-26T05:11:28.381Z,52.54
2022-10-26T05:13:56.708Z,52.40
2022-10-26T05:16:25.139Z,52.65
2022-10-26T05:18:53.595Z,52.54
2022-10-26T05:21:23.389Z,52.72
2022-10-26T05:23:53.913Z,52.46
2022-10-26T05:26:22.503Z,52.66
2022-10-26T05:28:52.260Z,52.60
2022-10-26T05:31:20.733Z,52.55
2022-10-26T05:33:51.405Z,52.69
2022-10-26T05:36:20.290Z,52.49
2022-10-26T05:38:50.060Z,52.72
2022-10-26T05:41:18.385Z,52.62
2022-10-26T05:43:49.059Z,52.62
2022-10-26T05:46:17.634Z,52.55
2022-10-26T05:48:45.990Z,52.59
2022-10-26T05:51:14.381Z,52.55
2022-10-26T05:53:42.738Z,52.71
2022-10-26T05:56:20.844Z,52.62
2022-10-26T05:58:50.273Z,52.45
2022-10-26T06:01:30.545Z,52.54
2022-10-26T06:04:18.734Z,52.58
2022-10-26T06:06:51.294Z,52.36
2022-10-26T06:09:20.497Z,52.41
2022-10-26T06:11:51.118Z,52.34
2022-10-26T06:14:20.431Z,52.48
2022-10-26T06:17:07.808Z,52.26
2022-10-26T06:19:53.139Z,52.14
2022-10-26T06:22:49.102Z,52.09
2022-10-26T06:25:29.704Z,52.08
2022-10-26T06:28:14.098Z,52.01
2022-10-26T06:30:43.805Z,52.16
2022-10-26T06:33:28.383Z,51.91
2022-10-26T06:36:11.634Z,51.73
2022-10-26T06:38:45.355Z,51.61
2022-10-26T06:41:16.383Z,51.73
2022-10-26T06:43:47.424Z,51.88
2022-10-26T06:46:32.466Z,51.76
2022-10-26T06:49:11.068Z,51.84
2022-10-26T06:51:48.256Z,51.72
2022-10-26T06:54:24.917Z,51.59
2022-10-26T06:56:54.557Z,51.44
2022-10-26T06:59:38.703Z,51.34
2022-10-26T07:02:07.553Z,51.21
2022-10-26T07:04:36.132Z,51.15
2022-10-26T07:07:04.988Z,50.88
2022-10-26T07:09:33.377Z,51.03
2022-10-26T07:12:01.953Z,50.85
2022-10-26T07:14:31.703Z,50.87
2022-10-26T07:17:00.080Z,50.93
2022-10-26T07:19:28.593Z,50.67
2022-10-26T07:21:59.262Z,50.77
2022-10-26T07:24:27.785Z,50.71
2022-10-26T07:26:56.871Z,50.53
2022-10-26T07:29:26.628Z,50.51
2022-10-26T07:31:56.467Z,50.45
2022-10-26T07:34:24.910Z,50.50
2022-10-26T07:36:53.301Z,50.46
2022-10-26T07:39:21.715Z,50.28
2022-10-26T07:41:50.154Z,50.35
2022-10-26T07:44:19.148Z,50.18
2022-10-26T07:46:47.546Z,50.09
2022-10-26T07:49:19.420Z,50.01
2022-10-26T07:51:48.194Z,50.04
2022-10-26T07:54:16.578Z,50.13
2022-10-26T07:56:44.952Z,50.10
2022-10-26T07:59:13.952Z,49.78
2022-10-26T08:01:42.372Z,49.99
2022-10-26T08:04:11.121Z,50.17
2022-10-26T08:06:40.936Z,49.88
2022-10-26T08:09:09.293Z,50.09
2022-10-26T08:11:37.969Z,50.31
2022-10-26T08:14:06.616Z,50.33
2022-10-26T08:16:35.300Z,50.25
2022-10-26T08:19:03.687Z,50.36
2022-10-26T08:21:47.172Z,50.22
2022-10-26T08:24:16.942Z,50.13
2022-10-26T08:26:45.321Z,50.26
2022-10-26T08:29:13.708Z,50.24
2022-10-26T08:31:42.113Z,50.30
2022-10-26T08:34:10.786Z,50.15
2022-10-26T08:36:39.167Z,50.08
2022-10-26T08:39:07.742Z,50.13
2022-10-26T08:41:42.136Z,50.36
2022-10-26T08:44:26.049Z,50.51
2022-10-26T08:46:59.607Z,50.58
2022-10-26T08:49:32.284Z,50.66
2022-10-26T08:52:03.977Z,50.75
2022-10-26T08:54:39.985Z,50.75
2022-10-26T08:57:20.338Z,50.60
2022-10-26T08:59:55.666Z,50.50
2022-10-26T09:02:24.882Z,50.60
2022-10-26T09:04:56.183Z,50.32
2022-10-26T09:07:51.491Z,50.63
2022-10-26T09:10:41.106Z,50.57
2022-10-26T09:13:24.826Z,50.56
2022-10-26T09:16:06.444Z,50.42
2022-10-26T09:18:49.818Z,50.38
2022-10-26T09:21:36.287Z,50.24
2022-10-26T09:24:13.485Z,50.18
2022-10-26T09:26:55.758Z,50.05
2022-10-26T09:29:32.931Z,50.22
2022-10-26T09:32:03.048Z,50.40
2022-10-26T09:34:40.073Z,49.97
2022-10-26T09:37:19.407Z,50.37
2022-10-26T09:39:56.171Z,50.24
2022-10-26T09:42:33.571Z,50.19
2022-10-26T09:45:13.061Z,50.21
2022-10-26T09:47:46.287Z,50.49
2022-10-26T09:50:25.180Z,50.47
2022-10-26T09:52:53.577Z,50.56
2022-10-26T09:55:23.035Z,50.46
2022-10-26T09:57:56.767Z,50.36
2022-10-26T10:00:28.865Z,50.21
2022-10-26T10:02:59.588Z,50.28
2022-10-26T10:05:50.242Z,50.29
2022-10-26T10:08:22.882Z,50.00
2022-10-26T10:11:04.780Z,50.24
2022-10-26T10:13:35.579Z,50.50
2022-10-26T10:16:11.587Z,50.01
2022-10-26T10:18:42.658Z,50.32
2022-10-26T10:21:12.143Z,50.30
2022-10-26T10:23:52.093Z,50.04
2022-10-26T10:26:20.856Z,49.86
2022-10-26T10:28:59.877Z,50.06
2022-10-26T10:31:34.170Z,49.78
2022-10-26T10:34:16.177Z,50.06
2022-10-26T10:36:44.701Z,50.10
2022-10-26T10:39:38.213Z,50.01
2022-10-26T10:42:18.456Z,50.15
2022-10-26T10:44:48.522Z,50.02
2022-10-26T10:47:24.368Z,50.04
2022-10-26T10:49:56.999Z,50.11
2022-10-26T10:52:29.540Z,50.27
2022-10-26T10:55:18.828Z,50.14
2022-10-26T10:58:05.822Z,50.36
2022-10-26T11:00:39.118Z,50.10
2022-10-26T11:03:28.311Z,50.26
2022-10-26T11:06:09.500Z,49.64
2022-10-26T11:08:45.894Z,49.92
2022-10-26T11:11:19.852Z,49.48
2022-10-26T11:13:54.624Z,49.40
2022-10-26T11:16:27.696Z,49.36
2022-10-26T11:19:03.154Z,49.14
2022-10-26T11:21:33.746Z,49.23
2022-10-26T11:24:16.548Z,48.80
2022-10-26T11:26:52.737Z,48.75
2022-10-26T11:29:45.936Z,49.06
2022-10-26T11:32:21.481Z,49.02
2022-10-26T11:34:59.595Z,48.63
2022-10-26T11:37:37.670Z,48.61
2022-10-26T11:40:24.272Z,48.32
2022-10-26T11:43:04.930Z,48.52
2022-10-26T11:45:39.132Z,48.43
2022-10-26T11:48:18.793Z,47.92
2022-10-26T11:50:54.503Z,48.27
2022-10-26T11:53:27.488Z,47.81
2022-10-26T11:55:57.761Z,47.79
2022-10-26T11:58:28.490Z,47.26
2022-10-26T12:01:02.480Z,46.95
2022-10-26T12:03:36.465Z,46.95
2022-10-26T12:06:06.710Z,46.94
2022-10-26T12:08:41.874Z,46.81
2022-10-26T12:11:21.509Z,46.55
2022-10-26T12:13:56.374Z,46.86
2022-10-26T12:16:44.274Z,46.65
2022-10-26T12:19:21.641Z,46.56
2022-10-26T12:21:53.246Z,46.49
2022-10-26T12:24:33.596Z,46.65
2022-10-26T12:27:03.708Z,46.52
2022-10-26T12:29:44.106Z,46.76
2022-10-26T12:32:55.177Z,46.90
2022-10-26T12:35:42.335Z,46.64
2022-10-26T12:39:01.044Z,46.69
2022-10-26T12:41:30.377Z,46.83
2022-10-26T12:44:06.186Z,46.64
2022-10-26T12:46:45.558Z,46.39
2022-10-26T12:49:58.500Z,46.63
2022-10-26T12:52:53.120Z,46.28
2022-10-26T12:56:05.287Z,46.63
2022-10-26T12:59:10.969Z,46.42
2022-10-26T13:02:27.362Z,46.04
2022-10-26T13:05:49.801Z,46.01
2022-10-26T13:08:18.637Z,45.76
2022-10-26T13:11:05.742Z,45.54
2022-10-26T13:13:36.640Z,45.63
2022-10-26T13:16:06.124Z,45.57
2022-10-26T13:18:44.001Z,45.88
2022-10-26T13:21:15.201Z,45.96
2022-10-26T13:23:47.358Z,46.12
2022-10-26T13:26:19.899Z,46.16
2022-10-26T13:28:53.151Z,46.19
2022-10-26T13:31:58.251Z,45.95
2022-10-26T13:34:31.187Z,46.06
2022-10-26T13:37:17.065Z,46.22
2022-10-26T13:39:49.216Z,46.28
2022-10-26T13:42:22.310Z,46.34
2022-10-26T13:44:58.407Z,46.35
2022-10-26T13:47:33.114Z,46.41
2022-10-26T13:50:07.578Z,46.17
2022-10-26T13:52:41.047Z,46.51
2022-10-26T13:55:19.104Z,46.37
2022-10-26T13:58:07.178Z,46.48
2022-10-26T14:00:35.647Z,46.64
2022-10-26T14:03:15.543Z,46.28
2022-10-26T14:05:48.730Z,46.81
2022-10-26T14:08:20.687Z,46.85
2022-10-26T14:10:55.116Z,46.42
2022-10-26T14:13:27.759Z,46.93
2022-10-26T14:15:58.847Z,46.84
2022-10-26T14:18:30.718Z,47.10
2022-10-26T14:21:03.623Z,47.16
2022-10-26T14:23:38.269Z,47.04
2022-10-26T14:26:07.192Z,46.90
2022-10-26T14:28:50.581Z,46.93
2022-10-26T14:31:29.045Z,47.17
2022-10-26T14:34:00.102Z,47.08
2022-10-26T14:36:32.996Z,47.39
2022-10-26T14:39:06.725Z,47.31
2022-10-26T14:41:37.401Z,47.45
2022-10-26T14:44:20.144Z,47.38
2022-10-26T14:46:49.174Z,47.64
2022-10-26T14:49:22.840Z,48.03
2022-10-26T14:51:57.610Z,47.88
2022-10-26T14:54:28.899Z,47.67
2022-10-26T14:56:58.426Z,48.06
2022-10-26T14:59:31.656Z,47.71
2022-10-26T15:02:04.446Z,47.85
2022-10-26T15:04:36.849Z,48.04
2022-10-26T15:07:18.753Z,47.82
2022-10-26T15:09:49.105Z,47.95
2022-10-26T15:12:26.735Z,48.05
2022-10-26T15:14:57.994Z,48.16
2022-10-26T15:17:34.669Z,48.04
2022-10-26T15:20:07.913Z,48.16
2022-10-26T15:22:36.609Z,48.18
2022-10-26T15:25:08.530Z,48.66
2022-10-26T15:27:37.096Z,48.75
2022-10-26T15:30:21.626Z,48.77
2022-10-26T15:32:51.227Z,48.86
2022-10-26T15:35:34.682Z,48.96
2022-10-26T15:38:03.211Z,48.67
2022-10-26T15:40:33.244Z,48.90
2022-10-26T15:43:02.675Z,49.14
2022-10-26T15:45:49.170Z,48.84
2022-10-26T15:48:24.302Z,49.20
2022-10-26T15:50:52.874Z,49.29
2022-10-26T15:53:24.271Z,49.08
2022-10-26T15:55:55.700Z,49.42
2022-10-26T15:58:24.978Z,49.51
2022-10-26T16:00:55.709Z,49.54
2022-10-26T16:03:26.328Z,49.34
2022-10-26T16:05:59.648Z,49.30
2022-10-26T16:08:31.201Z,49.31
2022-10-26T16:10:59.883Z,49.48
2022-10-26T16:13:28.457Z,49.56
2022-10-26T16:15:58.903Z,49.47
2022-10-26T16:18:27.898Z,49.38
2022-10-26T16:20:56.493Z,49.57
2022-10-26T16:23:25.107Z,49.72
2022-10-26T16:25:53.835Z,49.79
2022-10-26T16:28:23.065Z,49.56
2022-10-26T16:30:51.426Z,49.73
2022-10-26T16:33:22.034Z,49.76
2022-10-26T16:35:58.706Z,49.61
2022-10-26T16:38:28.891Z,49.74
2022-10-26T16:41:03.544Z,50.03
2022-10-26T16:43:34.134Z,49.83
2022-10-26T16:46:08.982Z,50.13
2022-10-26T16:48:41.216Z,50.06
2022-10-26T16:51:13.028Z,50.09
2022-10-26T16:53:42.539Z,49.73
2022-10-26T16:56:13.690Z,50.09
2022-10-26T16:58:43.044Z,50.24
2022-10-26T17:01:14.091Z,50.21
2022-10-26T17:03:44.289Z,50.24
2022-10-26T17:06:15.008Z,50.28
2022-10-26T17:08:45.488Z,50.07
2022-10-26T17:11:18.933Z,50.06
2022-10-26T17:13:48.856Z,50.29
2022-10-26T17:16:21.118Z,50.19
2022-10-26T17:18:53.170Z,50.19
2022-10-26T17:21:33.343Z,50.10
2022-10-26T17:24:05.157Z,50.50
2022-10-26T17:26:35.168Z,50.43
2022-10-26T17:29:04.873Z,50.44
2022-10-26T17:31:35.360Z,50.54
2022-10-26T17:34:07.078Z,50.29
2022-10-26T17:36:39.595Z,50.43
2022-10-26T17:39:08.904Z,50.46
2022-10-26T17:41:38.955Z,50.45
2022-10-26T17:44:09.483Z,50.69
2022-10-26T17:46:38.852Z,50.91
2022-10-26T17:49:10.393Z,51.00
2022-10-26T17:51:41.092Z,51.44
2022-10-26T17:54:11.371Z,51.38
2022-10-26T17:56:41.272Z,51.40
2022-10-26T17:59:14.002Z,51.74
2022-10-26T18:01:45.201Z,51.37
2022-10-26T18:04:16.748Z,51.63
2022-10-26T18:06:46.999Z,51.62
2022-10-26T18:09:17.043Z,51.52
2022-10-26T18:11:47.937Z,51.53
2022-10-26T18:14:19.617Z,51.77
2022-10-26T18:16:51.351Z,51.63
2022-10-26T18:19:22.579Z,51.54
2022-10-26T18:21:53.170Z,51.62
2022-10-26T18:24:23.525Z,51.59
2022-10-26T18:26:53.788Z,51.71
2022-10-26T18:29:25.478Z,51.79
2022-10-26T18:31:57.312Z,51.62
2022-10-26T18:34:28.872Z,51.68
2022-10-26T18:36:59.862Z,51.54
2022-10-26T18:39:36.930Z,51.60
2022-10-26T18:42:06.691Z,51.80
2022-10-26T18:44:38.798Z,51.70
2022-10-26T18:47:11.018Z,51.81
2022-10-26T18:49:43.569Z,51.89
2022-10-26T18:52:16.245Z,51.93
2022-10-26T18:54:47.213Z,52.11
2022-10-26T18:57:18.902Z,51.96
2022-10-26T18:59:53.929Z,52.12
2022-10-26T19:02:26.498Z,51.99
2022-10-26T19:05:00.841Z,52.22
2022-10-26T19:07:32.027Z,52.03
2022-10-26T19:10:02.739Z,52.13
2022-10-26T19:12:33.680Z,52.22
2022-10-26T19:15:06.907Z,52.27
2022-10-26T19:17:37.730Z,52.30
2022-10-26T19:20:13.670Z,52.42
2022-10-26T19:22:45.369Z,52.41
2022-10-26T19:25:17.849Z,52.47
2022-10-26T19:27:49.132Z,52.50
2022-10-26T19:30:19.964Z,52.49
2022-10-26T19:32:51.398Z,52.43
2022-10-26T19:35:25.485Z,52.48
2022-10-26T19:40:42.087Z,52.26
2022-10-26T19:43:13.164Z,52.33
2022-10-26T19:45:43.247Z,52.40
2022-10-26T19:48:16.153Z,52.37
2022-10-26T19:50:54.896Z,52.50
2022-10-26T19:53:25.282Z,52.58
2022-10-26T19:55:59.175Z,52.43
2022-10-26T19:58:30.963Z,52.51
2022-10-26T20:01:03.010Z,52.46
2022-10-26T20:03:35.106Z,52.41
2022-10-26T20:06:13.206Z,52.29
2022-10-26T20:08:47.666Z,52.48
2022-10-26T20:11:18.549Z,52.35
2022-10-26T20:13:49.640Z,52.42
2022-10-26T20:16:21.543Z,52.42
2022-10-26T20:18:51.746Z,52.41
2022-10-26T20:21:23.153Z,52.42
2022-10-26T20:23:53.392Z,52.35
2022-10-26T20:26:27.457Z,52.40
2022-10-26T20:28:58.974Z,52.40
2022-10-26T20:31:28.773Z,52.33
2022-10-26T20:33:58.719Z,52.58
2022-10-26T20:36:30.562Z,52.46
2022-10-26T20:39:01.518Z,52.46
2022-10-26T20:41:32.121Z,52.58
2022-10-26T20:44:04.028Z,52.56
2022-10-26T20:46:38.661Z,52.80
2022-10-26T20:49:10.818Z,52.43
2022-10-26T20:52:02.740Z,52.49
2022-10-26T20:54:44.381Z,52.73
2022-10-26T20:57:21.485Z,52.45
2022-10-26T20:59:54.206Z,52.79
2022-10-26T21:02:23.634Z,52.56
2022-10-26T21:04:52.292Z,52.44
2022-10-26T21:07:22.208Z,52.64
2022-10-26T21:09:50.603Z,52.43
2022-10-26T21:12:18.992Z,52.48
2022-10-26T21:14:47.393Z,52.39
2022-10-26T21:17:15.783Z,52.55
2022-10-26T21:19:44.204Z,52.56
2022-10-26T21:22:12.733Z,52.42
2022-10-26T21:24:42.489Z,52.50
2022-10-26T21:27:10.914Z,52.68
2022-10-26T21:29:39.280Z,52.67
2022-10-26T21:32:07.706Z,52.71
2022-10-26T21:34:36.090Z,52.86
2022-10-26T21:37:04.469Z,52.81
2022-10-26T21:39:32.889Z,53.00
2022-10-26T21:42:03.003Z,53.01
2022-10-26T21:44:46.611Z,52.88
2022-10-26T21:47:15.153Z,52.92
2022-10-26T21:49:43.625Z,53.18
2022-10-26T21:52:11.992Z,52.93
2022-10-26T21:54:40.362Z,52.86
2022-10-26T21:57:10.190Z,52.86
2022-10-26T21:59:38.580Z,52.76
2022-10-26T22:02:07.101Z,52.75
2022-10-26T22:04:35.821Z,52.83
2022-10-26T22:07:04.201Z,52.94
2022-10-26T22:09:37.360Z,52.91
2022-10-26T22:12:14.727Z,53.02
2022-10-26T22:14:43.080Z,53.12
2022-10-26T22:17:11.474Z,53.08
2022-10-26T22:19:39.834Z,52.99
2022-10-26T22:22:08.205Z,53.21
2022-10-26T22:24:36.571Z,53.30
2022-10-26T22:27:05.127Z,53.44
2022-10-26T22:29:34.933Z,53.56
2022-10-26T22:32:03.513Z,53.47
2022-10-26T22:34:31.909Z,53.73
2022-10-26T22:37:00.327Z,53.83
2022-10-26T22:39:28.655Z,53.72
2022-10-26T22:41:57.101Z,53.79
2022-10-26T22:44:25.937Z,54.15
2022-10-26T22:46:55.686Z,53.84
2022-10-26T22:49:24.031Z,54.02
2022-10-26T22:51:52.520Z,53.93
2022-10-26T22:54:20.889Z,54.02
2022-10-26T22:56:49.265Z,54.04
2022-10-26T22:59:17.595Z,54.21
2022-10-26T23:01:46.183Z,54.21
2022-10-26T23:04:16.222Z,54.17
2022-10-26T23:06:44.662Z,54.38
2022-10-26T23:09:13.045Z,54.18
2022-10-26T23:11:41.402Z,54.24
2022-10-26T23:14:11.187Z,54.38
2022-10-26T23:16:39.524Z,54.26
2022-10-26T23:19:07.881Z,54.33
2022-10-26T23:21:37.594Z,54.42
2022-10-26T23:24:06.810Z,54.55
2022-10-26T23:26:35.173Z,54.49
2022-10-26T23:29:03.533Z,54.52
2022-10-26T23:31:31.931Z,54.67
2022-10-26T23:34:00.284Z,54.78
2022-10-26T23:36:28.633Z,54.83
2022-10-26T23:38:58.675Z,54.85
2022-10-26T23:41:27.035Z,54.97
2022-10-26T23:43:55.362Z,54.95
2022-10-26T23:46:23.764Z,55.13
2022-10-26T23:48:52.178Z,55.06
2022-10-26T23:51:20.530Z,55.11
2022-10-26T23:53:48.902Z,55.17
2022-10-26T23:56:18.637Z,55.40
2022-10-26T23:58:51.263Z,55.29
